sensor_id;sensor_type;location;lat;lon;timestamp;P1;durP1;ratioP1;P2;durP2;ratioP2
27163;SDS011;14685;50.618;7.024;2023-06-05T00:01:07;3.70;;;2.53;;
27163;SDS011;14685;50.618;7.024;2023-06-05T00:03:36;5.78;;;2.72;;
27163;SDS011;14685;50.618;7.024;2023-06-05T00:06:05;3.70;;;2.42;;
27163;SDS011;14685;50.618;7.024;2023-06-05T00:08:33;4.30;;;2.83;;
27163;SDS011;14685;50.618;7.024;2023-06-05T00:11:00;4.10;;;2.67;;
27163;SDS011;14685;50.618;7.024;2023-06-05T00:13:27;4.22;;;2.72;;
27163;SDS011;14685;50.618;7.024;2023-06-05T00:15:54;3.70;;;2.60;;
27163;SDS011;14685;50.618;7.024;2023-06-05T00:18:22;3.38;;;2.78;;
27163;SDS011;14685;50.618;7.024;2023-06-05T00:20:49;4.70;;;2.75;;
27163;SDS011;14685;50.618;7.024;2023-06-05T00:23:16;3.63;;;2.50;;
27163;SDS011;14685;50.618;7.024;2023-06-05T00:25:43;4.38;;;2.70;;
27163;SDS011;14685;50.618;7.024;2023-06-05T00:28:13;3.28;;;2.42;;
27163;SDS011;14685;50.618;7.024;2023-06-05T00:30:41;5.50;;;2.55;;
27163;SDS011;14685;50.618;7.024;2023-06-05T00:33:07;4.50;;;2.80;;
27163;SDS011;14685;50.618;7.024;2023-06-05T00:35:34;3.65;;;2.80;;
27163;SDS011;14685;50.618;7.024;2023-06-05T00:38:01;3.95;;;2.63;;
27163;SDS011;14685;50.618;7.024;2023-06-05T00:40:28;4.43;;;2.67;;
27163;SDS011;14685;50.618;7.024;2023-06-05T00:42:56;5.50;;;2.53;;
27163;SDS011;14685;50.618;7.024;2023-06-05T00:45:23;4.95;;;3.08;;
27163;SDS011;14685;50.618;7.024;2023-06-05T00:47:50;5.95;;;2.70;;
27163;SDS011;14685;50.618;7.024;2023-06-05T00:50:17;4.82;;;2.50;;
27163;SDS011;14685;50.618;7.024;2023-06-05T00:52:48;3.75;;;2.60;;
27163;SDS011;14685;50.618;7.024;2023-06-05T00:55:16;4.95;;;2.53;;
27163;SDS011;14685;50.618;7.024;2023-06-05T00:57:44;6.30;;;2.55;;
27163;SDS011;14685;50.618;7.024;2023-06-05T01:00:11;2.78;;;2.50;;
27163;SDS011;14685;50.618;7.024;2023-06-05T01:02:41;4.15;;;2.97;;
27163;SDS011;14685;50.618;7.024;2023-06-05T01:05:09;4.28;;;2.30;;
27163;SDS011;14685;50.618;7.024;2023-06-05T01:07:36;4.30;;;2.65;;
27163;SDS011;14685;50.618;7.024;2023-06-05T01:10:07;2.92;;;2.55;;
27163;SDS011;14685;50.618;7.024;2023-06-05T01:12:38;2.83;;;2.50;;
27163;SDS011;14685;50.618;7.024;2023-06-05T01:15:12;3.28;;;2.63;;
27163;SDS011;14685;50.618;7.024;2023-06-05T01:17:42;3.58;;;2.72;;
27163;SDS011;14685;50.618;7.024;2023-06-05T01:20:14;5.05;;;2.75;;
27163;SDS011;14685;50.618;7.024;2023-06-05T01:22:41;9.35;;;2.83;;
27163;SDS011;14685;50.618;7.024;2023-06-05T01:25:08;3.00;;;2.45;;
27163;SDS011;14685;50.618;7.024;2023-06-05T01:30:44;6.43;;;2.85;;
27163;SDS011;14685;50.618;7.024;2023-06-05T01:33:34;4.35;;;2.85;;
27163;SDS011;14685;50.618;7.024;2023-06-05T01:36:11;2.45;;;2.17;;
27163;SDS011;14685;50.618;7.024;2023-06-05T01:38:40;3.67;;;2.60;;
27163;SDS011;14685;50.618;7.024;2023-06-05T01:41:09;3.78;;;2.25;;
27163;SDS011;14685;50.618;7.024;2023-06-05T01:43:37;3.40;;;2.20;;
27163;SDS011;14685;50.618;7.024;2023-06-05T01:46:05;2.78;;;2.40;;
27163;SDS011;14685;50.618;7.024;2023-06-05T01:48:34;5.35;;;2.80;;
27163;SDS011;14685;50.618;7.024;2023-06-05T01:51:01;2.72;;;2.28;;
27163;SDS011;14685;50.618;7.024;2023-06-05T01:53:31;4.70;;;2.58;;
27163;SDS011;14685;50.618;7.024;2023-06-05T01:55:59;4.35;;;2.80;;
27163;SDS011;14685;50.618;7.024;2023-06-05T01:58:27;5.45;;;2.50;;
27163;SDS011;14685;50.618;7.024;2023-06-05T02:00:55;3.72;;;2.78;;
27163;SDS011;14685;50.618;7.024;2023-06-05T02:03:24;3.42;;;2.95;;
27163;SDS011;14685;50.618;7.024;2023-06-05T02:05:52;7.20;;;2.70;;
27163;SDS011;14685;50.618;7.024;2023-06-05T02:08:19;2.95;;;2.63;;
27163;SDS011;14685;50.618;7.024;2023-06-05T02:10:49;5.10;;;2.88;;
27163;SDS011;14685;50.618;7.024;2023-06-05T02:13:16;3.65;;;2.70;;
27163;SDS011;14685;50.618;7.024;2023-06-05T02:15:45;3.05;;;2.60;;
27163;SDS011;14685;50.618;7.024;2023-06-05T02:18:14;3.20;;;2.65;;
27163;SDS011;14685;50.618;7.024;2023-06-05T02:20:42;4.57;;;2.58;;
27163;SDS011;14685;50.618;7.024;2023-06-05T02:23:09;2.70;;;2.30;;
27163;SDS011;14685;50.618;7.024;2023-06-05T02:25:37;3.33;;;2.70;;
27163;SDS011;14685;50.618;7.024;2023-06-05T02:28:05;4.60;;;2.78;;
27163;SDS011;14685;50.618;7.024;2023-06-05T02:30:32;2.70;;;2.50;;
27163;SDS011;14685;50.618;7.024;2023-06-05T02:33:01;5.85;;;2.40;;
27163;SDS011;14685;50.618;7.024;2023-06-05T02:35:31;3.33;;;2.80;;
27163;SDS011;14685;50.618;7.024;2023-06-05T02:37:58;4.40;;;2.80;;
27163;SDS011;14685;50.618;7.024;2023-06-05T02:40:25;2.85;;;2.55;;
27163;SDS011;14685;50.618;7.024;2023-06-05T02:42:52;4.22;;;2.75;;
27163;SDS011;14685;50.618;7.024;2023-06-05T02:45:20;4.97;;;3.00;;
27163;SDS011;14685;50.618;7.024;2023-06-05T02:47:50;4.78;;;2.58;;
27163;SDS011;14685;50.618;7.024;2023-06-05T02:50:17;4.43;;;2.63;;
27163;SDS011;14685;50.618;7.024;2023-06-05T02:52:44;4.88;;;2.80;;
27163;SDS011;14685;50.618;7.024;2023-06-05T02:55:11;6.40;;;2.83;;
27163;SDS011;14685;50.618;7.024;2023-06-05T02:57:38;4.20;;;3.15;;
27163;SDS011;14685;50.618;7.024;2023-06-05T03:00:11;5.35;;;2.78;;
27163;SDS011;14685;50.618;7.024;2023-06-05T03:02:44;5.15;;;3.03;;
27163;SDS011;14685;50.618;7.024;2023-06-05T03:05:18;3.67;;;2.75;;
27163;SDS011;14685;50.618;7.024;2023-06-05T03:07:53;5.45;;;3.00;;
27163;SDS011;14685;50.618;7.024;2023-06-05T03:10:22;2.78;;;2.58;;
27163;SDS011;14685;50.618;7.024;2023-06-05T03:12:50;6.75;;;2.88;;
27163;SDS011;14685;50.618;7.024;2023-06-05T03:15:16;3.33;;;2.45;;
27163;SDS011;14685;50.618;7.024;2023-06-05T03:17:44;4.03;;;2.63;;
27163;SDS011;14685;50.618;7.024;2023-06-05T03:20:17;4.70;;;2.60;;
27163;SDS011;14685;50.618;7.024;2023-06-05T03:22:44;3.70;;;3.03;;
27163;SDS011;14685;50.618;7.024;2023-06-05T03:25:12;5.25;;;2.50;;
27163;SDS011;14685;50.618;7.024;2023-06-05T03:27:40;4.47;;;2.50;;
27163;SDS011;14685;50.618;7.024;2023-06-05T03:30:08;3.95;;;2.80;;
27163;SDS011;14685;50.618;7.024;2023-06-05T03:32:35;4.72;;;2.72;;
27163;SDS011;14685;50.618;7.024;2023-06-05T03:35:02;4.10;;;2.55;;
27163;SDS011;14685;50.618;7.024;2023-06-05T03:37:30;3.10;;;2.40;;
27163;SDS011;14685;50.618;7.024;2023-06-05T03:39:58;4.28;;;2.85;;
27163;SDS011;14685;50.618;7.024;2023-06-05T03:42:25;8.50;;;3.30;;
27163;SDS011;14685;50.618;7.024;2023-06-05T03:44:53;4.53;;;2.97;;
27163;SDS011;14685;50.618;7.024;2023-06-05T03:47:20;5.40;;;3.28;;
27163;SDS011;14685;50.618;7.024;2023-06-05T03:49:48;6.45;;;3.08;;
27163;SDS011;14685;50.618;7.024;2023-06-05T03:52:16;5.10;;;3.25;;
27163;SDS011;14685;50.618;7.024;2023-06-05T03:54:43;7.82;;;3.33;;
27163;SDS011;14685;50.618;7.024;2023-06-05T03:57:14;3.70;;;2.97;;
27163;SDS011;14685;50.618;7.024;2023-06-05T03:59:41;3.80;;;3.13;;
27163;SDS011;14685;50.618;7.024;2023-06-05T04:02:09;4.68;;;3.17;;
27163;SDS011;14685;50.618;7.024;2023-06-05T04:04:36;3.70;;;2.95;;
27163;SDS011;14685;50.618;7.024;2023-06-05T04:07:03;5.20;;;2.60;;
27163;SDS011;14685;50.618;7.024;2023-06-05T04:09:31;5.55;;;3.15;;
27163;SDS011;14685;50.618;7.024;2023-06-05T04:11:58;6.60;;;3.17;;
27163;SDS011;14685;50.618;7.024;2023-06-05T04:14:25;3.88;;;3.20;;
27163;SDS011;14685;50.618;7.024;2023-06-05T04:16:53;5.00;;;3.22;;
27163;SDS011;14685;50.618;7.024;2023-06-05T04:19:22;4.40;;;3.20;;
27163;SDS011;14685;50.618;7.024;2023-06-05T04:21:50;5.50;;;2.75;;
27163;SDS011;14685;50.618;7.024;2023-06-05T04:24:17;7.40;;;3.50;;
27163;SDS011;14685;50.618;7.024;2023-06-05T04:26:44;3.58;;;3.00;;
27163;SDS011;14685;50.618;7.024;2023-06-05T04:29:11;4.15;;;2.83;;
27163;SDS011;14685;50.618;7.024;2023-06-05T04:31:45;4.40;;;2.92;;
27163;SDS011;14685;50.618;7.024;2023-06-05T04:34:14;6.40;;;3.33;;
27163;SDS011;14685;50.618;7.024;2023-06-05T04:36:45;4.20;;;3.22;;
27163;SDS011;14685;50.618;7.024;2023-06-05T04:39:13;5.93;;;2.97;;
27163;SDS011;14685;50.618;7.024;2023-06-05T04:41:44;3.92;;;3.38;;
27163;SDS011;14685;50.618;7.024;2023-06-05T04:44:28;5.35;;;3.58;;
27163;SDS011;14685;50.618;7.024;2023-06-05T04:46:55;5.13;;;3.40;;
27163;SDS011;14685;50.618;7.024;2023-06-05T04:49:22;5.05;;;3.25;;
27163;SDS011;14685;50.618;7.024;2023-06-05T04:51:51;4.50;;;3.40;;
27163;SDS011;14685;50.618;7.024;2023-06-05T04:54:19;5.53;;;3.13;;
27163;SDS011;14685;50.618;7.024;2023-06-05T04:56:46;5.43;;;3.35;;
27163;SDS011;14685;50.618;7.024;2023-06-05T04:59:16;4.35;;;3.40;;
27163;SDS011;14685;50.618;7.024;2023-06-05T05:01:43;4.78;;;3.25;;
27163;SDS011;14685;50.618;7.024;2023-06-05T05:04:10;6.05;;;3.53;;
27163;SDS011;14685;50.618;7.024;2023-06-05T05:06:38;3.60;;;3.13;;
27163;SDS011;14685;50.618;7.024;2023-06-05T05:09:07;5.70;;;3.78;;
27163;SDS011;14685;50.618;7.024;2023-06-05T05:11:35;4.75;;;3.38;;
27163;SDS011;14685;50.618;7.024;2023-06-05T05:14:02;4.70;;;3.38;;
27163;SDS011;14685;50.618;7.024;2023-06-05T05:16:29;5.53;;;3.92;;
27163;SDS011;14685;50.618;7.024;2023-06-05T05:18:56;6.90;;;3.63;;
27163;SDS011;14685;50.618;7.024;2023-06-05T05:21:24;5.18;;;3.63;;
27163;SDS011;14685;50.618;7.024;2023-06-05T05:23:52;5.50;;;3.30;;
27163;SDS011;14685;50.618;7.024;2023-06-05T05:26:19;4.22;;;3.25;;
27163;SDS011;14685;50.618;7.024;2023-06-05T05:28:47;6.38;;;3.58;;
27163;SDS011;14685;50.618;7.024;2023-06-05T05:31:15;5.35;;;3.42;;
27163;SDS011;14685;50.618;7.024;2023-06-05T05:33:44;6.13;;;3.67;;
27163;SDS011;14685;50.618;7.024;2023-06-05T05:36:11;6.32;;;3.40;;
27163;SDS011;14685;50.618;7.024;2023-06-05T05:38:41;5.18;;;3.13;;
27163;SDS011;14685;50.618;7.024;2023-06-05T05:41:07;6.38;;;3.70;;
27163;SDS011;14685;50.618;7.024;2023-06-05T05:43:34;6.57;;;3.78;;
27163;SDS011;14685;50.618;7.024;2023-06-05T05:46:01;7.47;;;3.67;;
27163;SDS011;14685;50.618;7.024;2023-06-05T05:48:28;7.43;;;3.63;;
27163;SDS011;14685;50.618;7.024;2023-06-05T05:50:57;7.63;;;3.55;;
27163;SDS011;14685;50.618;7.024;2023-06-05T05:53:25;6.43;;;3.63;;
27163;SDS011;14685;50.618;7.024;2023-06-05T05:55:53;7.95;;;3.65;;
27163;SDS011;14685;50.618;7.024;2023-06-05T05:58:21;6.20;;;3.92;;
27163;SDS011;14685;50.618;7.024;2023-06-05T06:00:49;6.68;;;3.58;;
27163;SDS011;14685;50.618;7.024;2023-06-05T06:03:16;8.00;;;4.28;;
27163;SDS011;14685;50.618;7.024;2023-06-05T06:05:44;6.80;;;3.53;;
27163;SDS011;14685;50.618;7.024;2023-06-05T06:08:11;11.18;;;3.83;;
27163;SDS011;14685;50.618;7.024;2023-06-05T06:10:40;6.57;;;3.15;;
27163;SDS011;14685;50.618;7.024;2023-06-05T06:13:07;9.00;;;3.70;;
27163;SDS011;14685;50.618;7.024;2023-06-05T06:15:35;9.15;;;3.85;;
27163;SDS011;14685;50.618;7.024;2023-06-05T06:18:06;9.10;;;3.45;;
27163;SDS011;14685;50.618;7.024;2023-06-05T06:20:33;5.75;;;3.53;;
27163;SDS011;14685;50.618;7.024;2023-06-05T06:23:01;6.05;;;3.50;;
27163;SDS011;14685;50.618;7.024;2023-06-05T06:25:29;7.45;;;3.58;;
27163;SDS011;14685;50.618;7.024;2023-06-05T06:27:58;9.10;;;3.47;;
27163;SDS011;14685;50.618;7.024;2023-06-05T06:30:26;6.43;;;3.30;;
27163;SDS011;14685;50.618;7.024;2023-06-05T06:32:58;4.68;;;3.22;;
27163;SDS011;14685;50.618;7.024;2023-06-05T06:35:25;7.15;;;4.05;;
27163;SDS011;14685;50.618;7.024;2023-06-05T06:37:53;6.80;;;4.07;;
27163;SDS011;14685;50.618;7.024;2023-06-05T06:40:21;6.13;;;3.42;;
27163;SDS011;14685;50.618;7.024;2023-06-05T06:42:48;7.32;;;3.55;;
27163;SDS011;14685;50.618;7.024;2023-06-05T06:45:17;12.30;;;3.63;;
27163;SDS011;14685;50.618;7.024;2023-06-05T06:47:44;13.68;;;3.80;;
27163;SDS011;14685;50.618;7.024;2023-06-05T06:50:24;6.20;;;3.33;;
27163;SDS011;14685;50.618;7.024;2023-06-05T06:52:51;5.07;;;3.30;;
27163;SDS011;14685;50.618;7.024;2023-06-05T06:55:18;5.18;;;3.10;;
27163;SDS011;14685;50.618;7.024;2023-06-05T06:57:47;5.60;;;3.92;;
27163;SDS011;14685;50.618;7.024;2023-06-05T07:00:15;8.27;;;3.53;;
27163;SDS011;14685;50.618;7.024;2023-06-05T07:02:42;8.38;;;3.70;;
27163;SDS011;14685;50.618;7.024;2023-06-05T07:05:10;6.43;;;3.47;;
27163;SDS011;14685;50.618;7.024;2023-06-05T07:07:37;7.13;;;3.42;;
27163;SDS011;14685;50.618;7.024;2023-06-05T07:10:04;5.88;;;3.28;;
27163;SDS011;14685;50.618;7.024;2023-06-05T07:12:32;6.28;;;3.25;;
27163;SDS011;14685;50.618;7.024;2023-06-05T07:14:59;7.30;;;3.40;;
27163;SDS011;14685;50.618;7.024;2023-06-05T07:17:25;7.15;;;3.47;;
27163;SDS011;14685;50.618;7.024;2023-06-05T07:19:56;5.72;;;3.55;;
27163;SDS011;14685;50.618;7.024;2023-06-05T07:22:24;5.43;;;3.58;;
27163;SDS011;14685;50.618;7.024;2023-06-05T07:24:53;8.05;;;4.05;;
27163;SDS011;14685;50.618;7.024;2023-06-05T07:27:21;6.97;;;3.65;;
27163;SDS011;14685;50.618;7.024;2023-06-05T07:29:48;6.93;;;3.35;;
27163;SDS011;14685;50.618;7.024;2023-06-05T07:32:17;5.57;;;3.65;;
27163;SDS011;14685;50.618;7.024;2023-06-05T07:34:44;7.45;;;3.65;;
27163;SDS011;14685;50.618;7.024;2023-06-05T07:37:12;11.20;;;3.45;;
27163;SDS011;14685;50.618;7.024;2023-06-05T07:39:39;5.47;;;3.50;;
27163;SDS011;14685;50.618;7.024;2023-06-05T07:42:06;5.55;;;2.80;;
27163;SDS011;14685;50.618;7.024;2023-06-05T07:44:34;6.53;;;3.35;;
27163;SDS011;14685;50.618;7.024;2023-06-05T07:47:01;5.53;;;3.05;;
27163;SDS011;14685;50.618;7.024;2023-06-05T07:49:29;5.05;;;3.25;;
27163;SDS011;14685;50.618;7.024;2023-06-05T07:51:58;7.40;;;3.03;;
27163;SDS011;14685;50.618;7.024;2023-06-05T07:54:25;9.15;;;3.08;;
27163;SDS011;14685;50.618;7.024;2023-06-05T07:56:52;4.80;;;2.85;;
27163;SDS011;14685;50.618;7.024;2023-06-05T07:59:20;4.38;;;3.38;;
27163;SDS011;14685;50.618;7.024;2023-06-05T08:01:53;5.45;;;3.00;;
27163;SDS011;14685;50.618;7.024;2023-06-05T08:04:21;5.43;;;3.10;;
27163;SDS011;14685;50.618;7.024;2023-06-05T08:06:51;5.78;;;3.13;;
27163;SDS011;14685;50.618;7.024;2023-06-05T08:09:19;5.32;;;2.75;;
27163;SDS011;14685;50.618;7.024;2023-06-05T08:11:46;7.53;;;2.92;;
27163;SDS011;14685;50.618;7.024;2023-06-05T08:14:13;7.72;;;3.30;;
27163;SDS011;14685;50.618;7.024;2023-06-05T08:16:40;5.43;;;2.80;;
27163;SDS011;14685;50.618;7.024;2023-06-05T08:19:09;8.07;;;3.10;;
27163;SDS011;14685;50.618;7.024;2023-06-05T08:21:36;5.88;;;3.00;;
27163;SDS011;14685;50.618;7.024;2023-06-05T08:24:05;4.05;;;2.72;;
27163;SDS011;14685;50.618;7.024;2023-06-05T08:26:32;4.72;;;2.53;;
27163;SDS011;14685;50.618;7.024;2023-06-05T08:28:59;5.43;;;2.95;;
27163;SDS011;14685;50.618;7.024;2023-06-05T08:31:26;5.68;;;2.60;;
27163;SDS011;14685;50.618;7.024;2023-06-05T08:33:54;3.40;;;2.20;;
27163;SDS011;14685;50.618;7.024;2023-06-05T08:36:21;7.45;;;2.72;;
27163;SDS011;14685;50.618;7.024;2023-06-05T08:38:50;9.25;;;2.70;;
27163;SDS011;14685;50.618;7.024;2023-06-05T08:41:17;7.78;;;2.72;;
27163;SDS011;14685;50.618;7.024;2023-06-05T08:43:44;6.70;;;2.35;;
27163;SDS011;14685;50.618;7.024;2023-06-05T08:46:13;8.30;;;2.90;;
27163;SDS011;14685;50.618;7.024;2023-06-05T08:48:46;6.40;;;2.60;;
27163;SDS011;14685;50.618;7.024;2023-06-05T08:51:15;3.67;;;2.70;;
27163;SDS011;14685;50.618;7.024;2023-06-05T08:54:02;12.32;;;3.45;;
27163;SDS011;14685;50.618;7.024;2023-06-05T08:56:31;7.55;;;2.88;;
27163;SDS011;14685;50.618;7.024;2023-06-05T08:58:59;10.77;;;3.03;;
27163;SDS011;14685;50.618;7.024;2023-06-05T09:01:26;9.40;;;3.17;;
27163;SDS011;14685;50.618;7.024;2023-06-05T09:03:54;4.78;;;2.33;;
27163;SDS011;14685;50.618;7.024;2023-06-05T09:06:21;7.57;;;2.70;;
27163;SDS011;14685;50.618;7.024;2023-06-05T09:08:48;10.55;;;2.53;;
27163;SDS011;14685;50.618;7.024;2023-06-05T09:11:22;6.85;;;2.75;;
27163;SDS011;14685;50.618;7.024;2023-06-05T09:13:55;5.20;;;2.85;;
27163;SDS011;14685;50.618;7.024;2023-06-05T09:16:36;10.25;;;2.80;;
27163;SDS011;14685;50.618;7.024;2023-06-05T09:19:05;6.93;;;2.60;;
27163;SDS011;14685;50.618;7.024;2023-06-05T09:21:33;7.82;;;2.40;;
27163;SDS011;14685;50.618;7.024;2023-06-05T09:26:51;4.35;;;2.58;;
27163;SDS011;14685;50.618;7.024;2023-06-05T09:29:26;5.95;;;2.55;;
27163;SDS011;14685;50.618;7.024;2023-06-05T09:31:55;5.40;;;2.47;;
27163;SDS011;14685;50.618;7.024;2023-06-05T09:34:33;4.78;;;2.28;;
27163;SDS011;14685;50.618;7.024;2023-06-05T09:37:02;6.97;;;2.25;;
27163;SDS011;14685;50.618;7.024;2023-06-05T09:39:32;4.22;;;2.80;;
27163;SDS011;14685;50.618;7.024;2023-06-05T09:42:00;7.05;;;2.30;;
27163;SDS011;14685;50.618;7.024;2023-06-05T09:44:27;4.45;;;2.20;;
27163;SDS011;14685;50.618;7.024;2023-06-05T09:49:54;3.65;;;2.47;;
27163;SDS011;14685;50.618;7.024;2023-06-05T09:52:19;4.53;;;2.60;;
27163;SDS011;14685;50.618;7.024;2023-06-05T09:54:46;4.28;;;2.50;;
27163;SDS011;14685;50.618;7.024;2023-06-05T09:57:16;6.63;;;2.90;;
27163;SDS011;14685;50.618;7.024;2023-06-05T09:59:54;3.10;;;2.55;;
27163;SDS011;14685;50.618;7.024;2023-06-05T10:02:25;5.72;;;2.40;;
27163;SDS011;14685;50.618;7.024;2023-06-05T10:05:01;6.00;;;2.40;;
27163;SDS011;14685;50.618;7.024;2023-06-05T10:07:30;6.93;;;2.38;;
27163;SDS011;14685;50.618;7.024;2023-06-05T10:09:58;4.32;;;2.20;;
27163;SDS011;14685;50.618;7.024;2023-06-05T10:12:25;5.60;;;2.28;;
27163;SDS011;14685;50.618;7.024;2023-06-05T10:14:53;6.03;;;2.75;;
27163;SDS011;14685;50.618;7.024;2023-06-05T10:17:25;4.45;;;2.70;;
27163;SDS011;14685;50.618;7.024;2023-06-05T10:19:53;4.80;;;2.20;;
27163;SDS011;14685;50.618;7.024;2023-06-05T10:22:20;3.72;;;2.30;;
27163;SDS011;14685;50.618;7.024;2023-06-05T10:24:51;6.57;;;2.40;;
27163;SDS011;14685;50.618;7.024;2023-06-05T10:33:16;4.20;;;2.75;;
27163;SDS011;14685;50.618;7.024;2023-06-05T10:36:23;3.55;;;2.10;;
27163;SDS011;14685;50.618;7.024;2023-06-05T10:38:52;3.72;;;2.42;;
27163;SDS011;14685;50.618;7.024;2023-06-05T10:41:20;3.53;;;2.10;;
27163;SDS011;14685;50.618;7.024;2023-06-05T10:43:49;6.70;;;2.28;;
27163;SDS011;14685;50.618;7.024;2023-06-05T10:46:28;4.80;;;2.17;;
27163;SDS011;14685;50.618;7.024;2023-06-05T10:49:13;4.18;;;2.83;;
27163;SDS011;14685;50.618;7.024;2023-06-05T10:51:50;3.58;;;2.08;;
27163;SDS011;14685;50.618;7.024;2023-06-05T10:59:25;2.60;;;2.20;;
27163;SDS011;14685;50.618;7.024;2023-06-05T11:07:27;5.00;;;2.35;;
27163;SDS011;14685;50.618;7.024;2023-06-05T11:15:02;5.55;;;3.10;;
27163;SDS011;14685;50.618;7.024;2023-06-05T11:17:31;2.83;;;2.20;;
27163;SDS011;14685;50.618;7.024;2023-06-05T11:20:00;3.78;;;2.42;;
27163;SDS011;14685;50.618;7.024;2023-06-05T11:25:26;2.38;;;2.00;;
27163;SDS011;14685;50.618;7.024;2023-06-05T11:27:58;5.50;;;2.58;;
27163;SDS011;14685;50.618;7.024;2023-06-05T11:30:31;2.88;;;2.22;;
27163;SDS011;14685;50.618;7.024;2023-06-05T11:33:13;4.50;;;2.28;;
27163;SDS011;14685;50.618;7.024;2023-06-05T11:35:43;4.22;;;2.15;;
27163;SDS011;14685;50.618;7.024;2023-06-05T11:38:12;6.30;;;2.50;;
27163;SDS011;14685;50.618;7.024;2023-06-05T11:40:42;8.57;;;2.40;;
27163;SDS011;14685;50.618;7.024;2023-06-05T11:43:13;3.72;;;2.00;;
27163;SDS011;14685;50.618;7.024;2023-06-05T11:45:43;5.53;;;2.33;;
27163;SDS011;14685;50.618;7.024;2023-06-05T11:48:19;5.53;;;2.10;;
27163;SDS011;14685;50.618;7.024;2023-06-05T11:50:55;3.45;;;2.30;;
27163;SDS011;14685;50.618;7.024;2023-06-05T11:53:28;3.17;;;2.08;;
27163;SDS011;14685;50.618;7.024;2023-06-05T11:55:57;4.65;;;2.35;;
27163;SDS011;14685;50.618;7.024;2023-06-05T11:58:31;5.45;;;2.33;;
27163;SDS011;14685;50.618;7.024;2023-06-05T12:01:18;4.07;;;2.25;;
27163;SDS011;14685;50.618;7.024;2023-06-05T12:03:49;5.07;;;2.50;;
27163;SDS011;14685;50.618;7.024;2023-06-05T12:06:32;4.20;;;2.83;;
27163;SDS011;14685;50.618;7.024;2023-06-05T12:09:08;3.42;;;2.17;;
27163;SDS011;14685;50.618;7.024;2023-06-05T12:11:37;6.88;;;2.42;;
27163;SDS011;14685;50.618;7.024;2023-06-05T12:14:04;4.70;;;2.63;;
27163;SDS011;14685;50.618;7.024;2023-06-05T12:16:35;3.75;;;2.45;;
27163;SDS011;14685;50.618;7.024;2023-06-05T12:19:10;3.28;;;2.40;;
27163;SDS011;14685;50.618;7.024;2023-06-05T12:21:42;5.22;;;2.60;;
27163;SDS011;14685;50.618;7.024;2023-06-05T12:24:10;2.65;;;2.20;;
27163;SDS011;14685;50.618;7.024;2023-06-05T12:29:25;4.43;;;2.40;;
27163;SDS011;14685;50.618;7.024;2023-06-05T12:34:39;3.15;;;2.50;;
27163;SDS011;14685;50.618;7.024;2023-06-05T12:37:26;4.68;;;2.45;;
27163;SDS011;14685;50.618;7.024;2023-06-05T12:40:05;4.78;;;2.88;;
27163;SDS011;14685;50.618;7.024;2023-06-05T12:42:38;3.90;;;2.20;;
27163;SDS011;14685;50.618;7.024;2023-06-05T12:45:07;3.53;;;2.60;;
27163;SDS011;14685;50.618;7.024;2023-06-05T12:47:37;8.45;;;2.58;;
27163;SDS011;14685;50.618;7.024;2023-06-05T12:50:05;2.95;;;2.45;;
27163;SDS011;14685;50.618;7.024;2023-06-05T12:52:33;4.13;;;2.08;;
27163;SDS011;14685;50.618;7.024;2023-06-05T12:55:00;2.60;;;2.38;;
27163;SDS011;14685;50.618;7.024;2023-06-05T12:57:29;3.05;;;2.40;;
27163;SDS011;14685;50.618;7.024;2023-06-05T12:59:57;5.68;;;2.72;;
27163;SDS011;14685;50.618;7.024;2023-06-05T13:02:24;4.55;;;2.78;;
27163;SDS011;14685;50.618;7.024;2023-06-05T13:04:51;3.63;;;2.50;;
27163;SDS011;14685;50.618;7.024;2023-06-05T13:07:18;3.88;;;2.42;;
27163;SDS011;14685;50.618;7.024;2023-06-05T13:09:48;3.60;;;2.60;;
27163;SDS011;14685;50.618;7.024;2023-06-05T13:12:16;4.72;;;2.60;;
27163;SDS011;14685;50.618;7.024;2023-06-05T13:14:43;3.60;;;2.22;;
27163;SDS011;14685;50.618;7.024;2023-06-05T13:17:10;4.30;;;2.38;;
27163;SDS011;14685;50.618;7.024;2023-06-05T13:19:37;6.43;;;2.45;;
27163;SDS011;14685;50.618;7.024;2023-06-05T13:22:05;3.42;;;2.40;;
27163;SDS011;14685;50.618;7.024;2023-06-05T13:24:33;6.30;;;2.58;;
27163;SDS011;14685;50.618;7.024;2023-06-05T13:27:00;4.78;;;2.28;;
27163;SDS011;14685;50.618;7.024;2023-06-05T13:29:28;4.25;;;2.78;;
27163;SDS011;14685;50.618;7.024;2023-06-05T13:31:56;2.28;;;2.08;;
27163;SDS011;14685;50.618;7.024;2023-06-05T13:34:23;3.30;;;2.28;;
27163;SDS011;14685;50.618;7.024;2023-06-05T13:36:50;4.82;;;2.10;;
27163;SDS011;14685;50.618;7.024;2023-06-05T13:39:27;7.55;;;2.60;;
27163;SDS011;14685;50.618;7.024;2023-06-05T13:41:54;3.03;;;2.45;;
27163;SDS011;14685;50.618;7.024;2023-06-05T13:44:21;4.32;;;2.42;;
27163;SDS011;14685;50.618;7.024;2023-06-05T13:46:50;5.18;;;2.33;;
27163;SDS011;14685;50.618;7.024;2023-06-05T13:49:17;5.45;;;2.33;;
27163;SDS011;14685;50.618;7.024;2023-06-05T13:51:44;4.93;;;2.30;;
27163;SDS011;14685;50.618;7.024;2023-06-05T13:54:10;2.65;;;2.17;;
27163;SDS011;14685;50.618;7.024;2023-06-05T13:56:37;2.80;;;2.15;;
27163;SDS011;14685;50.618;7.024;2023-06-05T13:59:04;8.23;;;3.40;;
27163;SDS011;14685;50.618;7.024;2023-06-05T14:01:32;4.05;;;2.60;;
27163;SDS011;14685;50.618;7.024;2023-06-05T14:03:59;7.57;;;2.45;;
27163;SDS011;14685;50.618;7.024;2023-06-05T14:06:26;3.10;;;2.30;;
27163;SDS011;14685;50.618;7.024;2023-06-05T14:08:53;2.40;;;2.20;;
27163;SDS011;14685;50.618;7.024;2023-06-05T14:11:20;4.97;;;2.67;;
27163;SDS011;14685;50.618;7.024;2023-06-05T14:13:48;5.43;;;2.20;;
27163;SDS011;14685;50.618;7.024;2023-06-05T14:16:15;3.80;;;2.53;;
27163;SDS011;14685;50.618;7.024;2023-06-05T14:18:42;2.92;;;2.33;;
27163;SDS011;14685;50.618;7.024;2023-06-05T14:21:09;3.03;;;2.35;;
27163;SDS011;14685;50.618;7.024;2023-06-05T14:23:36;4.82;;;2.33;;
27163;SDS011;14685;50.618;7.024;2023-06-05T14:26:04;3.17;;;2.30;;
27163;SDS011;14685;50.618;7.024;2023-06-05T14:28:31;4.22;;;2.58;;
27163;SDS011;14685;50.618;7.024;2023-06-05T14:30:58;2.65;;;2.35;;
27163;SDS011;14685;50.618;7.024;2023-06-05T14:33:25;4.20;;;2.28;;
27163;SDS011;14685;50.618;7.024;2023-06-05T14:35:53;2.63;;;2.25;;
27163;SDS011;14685;50.618;7.024;2023-06-05T14:38:22;3.00;;;2.58;;
27163;SDS011;14685;50.618;7.024;2023-06-05T14:40:49;3.08;;;2.22;;
27163;SDS011;14685;50.618;7.024;2023-06-05T14:43:17;2.63;;;2.40;;
27163;SDS011;14685;50.618;7.024;2023-06-05T14:45:45;5.80;;;3.00;;
27163;SDS011;14685;50.618;7.024;2023-06-05T14:48:12;5.28;;;2.83;;
27163;SDS011;14685;50.618;7.024;2023-06-05T14:50:39;7.15;;;2.67;;
27163;SDS011;14685;50.618;7.024;2023-06-05T14:53:07;4.07;;;2.97;;
27163;SDS011;14685;50.618;7.024;2023-06-05T14:55:34;7.55;;;2.40;;
27163;SDS011;14685;50.618;7.024;2023-06-05T14:58:01;2.72;;;2.45;;
27163;SDS011;14685;50.618;7.024;2023-06-05T15:00:28;4.25;;;2.60;;
27163;SDS011;14685;50.618;7.024;2023-06-05T15:02:56;9.20;;;2.80;;
27163;SDS011;14685;50.618;7.024;2023-06-05T15:05:23;4.35;;;2.47;;
27163;SDS011;14685;50.618;7.024;2023-06-05T15:07:50;3.17;;;2.88;;
27163;SDS011;14685;50.618;7.024;2023-06-05T15:10:19;4.43;;;2.17;;
27163;SDS011;14685;50.618;7.024;2023-06-05T15:12:46;4.75;;;2.30;;
27163;SDS011;14685;50.618;7.024;2023-06-05T15:15:17;2.80;;;2.33;;
27163;SDS011;14685;50.618;7.024;2023-06-05T15:17:47;4.00;;;2.80;;
27163;SDS011;14685;50.618;7.024;2023-06-05T15:20:14;3.53;;;2.30;;
27163;SDS011;14685;50.618;7.024;2023-06-05T15:22:42;4.70;;;2.60;;
27163;SDS011;14685;50.618;7.024;2023-06-05T15:25:09;3.10;;;2.60;;
27163;SDS011;14685;50.618;7.024;2023-06-05T15:27:36;5.28;;;2.35;;
27163;SDS011;14685;50.618;7.024;2023-06-05T15:30:05;3.70;;;2.50;;
27163;SDS011;14685;50.618;7.024;2023-06-05T15:32:33;4.35;;;2.53;;
27163;SDS011;14685;50.618;7.024;2023-06-05T15:35:00;5.05;;;2.65;;
27163;SDS011;14685;50.618;7.024;2023-06-05T15:37:27;5.47;;;2.63;;